sensor_id;sensor_type;location;lat;lon;timestamp;pressure;altitude;pressure_sealevel;temperature;humidity
39177;BME280;24904;52.208;21.192;2023-09-19T00:01:12;99887.21;;;19.61;73.19
39177;BME280;24904;52.208;21.192;2023-09-19T00:06:18;99883.25;;;19.57;73.35
39177;BME280;24904;52.208;21.192;2023-09-19T00:11:23;99879.75;;;19.54;73.69
39177;BME280;24904;52.208;21.192;2023-09-19T00:24:05;99877.00;;;19.51;73.87
39177;BME280;24904;52.208;21.192;2023-09-19T00:29:10;99876.65;;;19.42;74.01
39177;BME280;24904;52.208;21.192;2023-09-19T00:34:19;99874.45;;;19.36;74.26
39177;BME280;24904;52.208;21.192;2023-09-19T00:39:24;99875.52;;;19.31;74.64
39177;BME280;24904;52.208;21.192;2023-09-19T00:44:32;99869.86;;;19.20;74.77
39177;BME280;24904;52.208;21.192;2023-09-19T00:49:40;99866.31;;;19.18;75.06
39177;BME280;24904;52.208;21.192;2023-09-19T00:54:46;99863.16;;;19.11;75.26
39177;BME280;24904;52.208;21.192;2023-09-19T00:59:51;99855.46;;;19.08;75.52
39177;BME280;24904;52.208;21.192;2023-09-19T01:04:59;99848.40;;;19.04;75.64
39177;BME280;24904;52.208;21.192;2023-09-19T01:10:06;99845.15;;;19.03;75.84
39177;BME280;24904;52.208;21.192;2023-09-19T01:15:31;99849.74;;;19.01;75.90
39177;BME280;24904;52.208;21.192;2023-09-19T01:20:50;99841.35;;;18.99;76.06
39177;BME280;24904;52.208;21.192;2023-09-19T01:26:11;99837.45;;;18.97;76.09
39177;BME280;24904;52.208;21.192;2023-09-19T01:31:24;99826.84;;;18.91;76.32
39177;BME280;24904;52.208;21.192;2023-09-19T01:36:32;99825.75;;;18.88;76.45
39177;BME280;24904;52.208;21.192;2023-09-19T01:41:58;99823.44;;;18.86;76.58
39177;BME280;24904;52.208;21.192;2023-09-19T01:47:19;99813.16;;;18.84;76.72
39177;BME280;24904;52.208;21.192;2023-09-19T01:52:31;99810.20;;;18.80;76.71
39177;BME280;24904;52.208;21.192;2023-09-19T01:57:48;99805.86;;;18.76;76.99
39177;BME280;24904;52.208;21.192;2023-09-19T02:02:55;99801.58;;;18.74;77.13
39177;BME280;24904;52.208;21.192;2023-09-19T02:08:04;99804.20;;;18.74;77.27
39177;BME280;24904;52.208;21.192;2023-09-19T02:13:10;99806.35;;;18.76;77.37
39177;BME280;24904;52.208;21.192;2023-09-19T02:18:15;99802.15;;;18.76;77.46
39177;BME280;24904;52.208;21.192;2023-09-19T02:23:20;99797.83;;;18.74;77.46
39177;BME280;24904;52.208;21.192;2023-09-19T02:28:25;99793.21;;;18.71;77.64
39177;BME280;24904;52.208;21.192;2023-09-19T02:33:33;99793.41;;;18.73;77.65
39177;BME280;24904;52.208;21.192;2023-09-19T02:38:39;99783.77;;;18.71;77.64
39177;BME280;24904;52.208;21.192;2023-09-19T02:43:44;99774.98;;;18.64;77.72
39177;BME280;24904;52.208;21.192;2023-09-19T02:48:51;99756.70;;;18.62;77.83
39177;BME280;24904;52.208;21.192;2023-09-19T02:53:56;99766.21;;;18.60;77.88
39177;BME280;24904;52.208;21.192;2023-09-19T02:59:01;99762.80;;;18.57;77.99
39177;BME280;24904;52.208;21.192;2023-09-19T03:04:07;99756.86;;;18.52;77.98
39177;BME280;24904;52.208;21.192;2023-09-19T03:18:14;99749.19;;;18.51;78.32
39177;BME280;24904;52.208;21.192;2023-09-19T03:23:17;99732.65;;;18.47;78.35
39177;BME280;24904;52.208;21.192;2023-09-19T03:28:21;99728.74;;;18.44;78.37
39177;BME280;24904;52.208;21.192;2023-09-19T03:33:24;99735.70;;;18.39;78.58
39177;BME280;24904;52.208;21.192;2023-09-19T03:38:28;99738.46;;;18.38;78.68
39177;BME280;24904;52.208;21.192;2023-09-19T03:43:33;99731.83;;;18.34;78.76
39177;BME280;24904;52.208;21.192;2023-09-19T03:48:36;99728.99;;;18.31;78.88
39177;BME280;24904;52.208;21.192;2023-09-19T03:53:39;99724.40;;;18.27;78.97
39177;BME280;24904;52.208;21.192;2023-09-19T03:58:43;99719.20;;;18.24;79.07
39177;BME280;24904;52.208;21.192;2023-09-19T04:03:46;99720.88;;;18.21;79.30
39177;BME280;24904;52.208;21.192;2023-09-19T04:12:32;99721.10;;;18.19;79.35
39177;BME280;24904;52.208;21.192;2023-09-19T04:17:38;99716.63;;;18.15;79.48
39177;BME280;24904;52.208;21.192;2023-09-19T04:22:43;99706.03;;;18.13;79.73
39177;BME280;24904;52.208;21.192;2023-09-19T04:27:48;99698.40;;;18.13;79.73
39177;BME280;24904;52.208;21.192;2023-09-19T04:32:53;99695.16;;;18.13;79.82
39177;BME280;24904;52.208;21.192;2023-09-19T04:37:58;99690.77;;;18.13;79.89
39177;BME280;24904;52.208;21.192;2023-09-19T04:43:03;99684.70;;;18.15;80.06
39177;BME280;24904;52.208;21.192;2023-09-19T04:48:09;99685.99;;;18.17;80.18
39177;BME280;24904;52.208;21.192;2023-09-19T04:53:14;99686.45;;;18.18;80.13
39177;BME280;24904;52.208;21.192;2023-09-19T04:58:21;99682.46;;;18.21;80.28
39177;BME280;24904;52.208;21.192;2023-09-19T05:03:26;99679.41;;;18.24;80.26
39177;BME280;24904;52.208;21.192;2023-09-19T05:08:31;99674.51;;;18.28;80.38
39177;BME280;24904;52.208;21.192;2023-09-19T05:13:36;99680.55;;;18.31;80.45
39177;BME280;24904;52.208;21.192;2023-09-19T05:18:41;99676.41;;;18.36;80.54
39177;BME280;24904;52.208;21.192;2023-09-19T05:23:46;99675.94;;;18.44;80.46
39177;BME280;24904;52.208;21.192;2023-09-19T05:28:51;99671.46;;;18.50;80.44
39177;BME280;24904;52.208;21.192;2023-09-19T05:33:56;99667.73;;;18.54;80.42
39177;BME280;24904;52.208;21.192;2023-09-19T05:39:01;99670.17;;;18.57;80.27
39177;BME280;24904;52.208;21.192;2023-09-19T05:44:08;99671.08;;;18.59;80.20
39177;BME280;24904;52.208;21.192;2023-09-19T05:49:13;99663.34;;;18.60;80.10
39177;BME280;24904;52.208;21.192;2023-09-19T05:54:19;99663.24;;;18.60;79.99
39177;BME280;24904;52.208;21.192;2023-09-19T05:59:24;99659.62;;;18.62;80.07
39177;BME280;24904;52.208;21.192;2023-09-19T06:04:28;99660.96;;;18.65;80.03
39177;BME280;24904;52.208;21.192;2023-09-19T06:09:34;99659.65;;;18.68;80.02
39177;BME280;24904;52.208;21.192;2023-09-19T06:14:39;99661.62;;;18.72;80.11
39177;BME280;24904;52.208;21.192;2023-09-19T06:19:45;99663.13;;;18.77;80.13
39177;BME280;24904;52.208;21.192;2023-09-19T06:24:50;99666.97;;;18.83;80.07
39177;BME280;24904;52.208;21.192;2023-09-19T06:29:56;99668.13;;;18.86;79.90
39177;BME280;24904;52.208;21.192;2023-09-19T06:35:01;99669.21;;;18.90;79.98
39177;BME280;24904;52.208;21.192;2023-09-19T06:40:09;99676.75;;;18.94;79.89
39177;BME280;24904;52.208;21.192;2023-09-19T06:45:17;99686.22;;;18.99;79.78
39177;BME280;24904;52.208;21.192;2023-09-19T06:50:23;99701.05;;;19.04;79.87
39177;BME280;24904;52.208;21.192;2023-09-19T06:55:28;99708.49;;;19.10;79.95
39177;BME280;24904;52.208;21.192;2023-09-19T07:00:34;99710.95;;;19.12;79.74
39177;BME280;24904;52.208;21.192;2023-09-19T07:05:40;99710.39;;;19.15;80.00
39177;BME280;24904;52.208;21.192;2023-09-19T07:10:46;99710.15;;;19.22;80.22
39177;BME280;24904;52.208;21.192;2023-09-19T07:15:53;99709.00;;;19.37;80.25
39177;BME280;24904;52.208;21.192;2023-09-19T07:21:00;99703.23;;;19.49;79.77
39177;BME280;24904;52.208;21.192;2023-09-19T07:26:08;99708.02;;;19.62;79.56
39177;BME280;24904;52.208;21.192;2023-09-19T07:31:13;99722.48;;;19.76;79.01
39177;BME280;24904;52.208;21.192;2023-09-19T07:36:18;99737.04;;;19.87;79.01
39177;BME280;24904;52.208;21.192;2023-09-19T07:41:24;99736.68;;;20.07;78.92
39177;BME280;24904;52.208;21.192;2023-09-19T07:46:29;99737.21;;;20.33;78.63
39177;BME280;24904;52.208;21.192;2023-09-19T07:51:34;99740.31;;;20.48;78.01
39177;BME280;24904;52.208;21.192;2023-09-19T07:56:39;99743.21;;;20.53;77.28
39177;BME280;24904;52.208;21.192;2023-09-19T08:01:44;99748.96;;;20.63;77.00
39177;BME280;24904;52.208;21.192;2023-09-19T08:06:51;99751.64;;;20.77;76.85
39177;BME280;24904;52.208;21.192;2023-09-19T08:11:56;99746.59;;;20.86;76.26
39177;BME280;24904;52.208;21.192;2023-09-19T08:17:02;99747.55;;;20.88;76.03
39177;BME280;24904;52.208;21.192;2023-09-19T08:22:08;99744.45;;;20.91;75.89
39177;BME280;24904;52.208;21.192;2023-09-19T08:27:15;99748.35;;;20.93;75.63
39177;BME280;24904;52.208;21.192;2023-09-19T08:32:21;99750.70;;;20.96;75.72
39177;BME280;24904;52.208;21.192;2023-09-19T08:37:29;99752.58;;;21.03;75.74
39177;BME280;24904;52.208;21.192;2023-09-19T08:42:48;99748.33;;;21.11;75.68
39177;BME280;24904;52.208;21.192;2023-09-19T08:48:15;99753.70;;;21.16;75.46
39177;BME280;24904;52.208;21.192;2023-09-19T08:53:30;99751.36;;;21.15;75.30
39177;BME280;24904;52.208;21.192;2023-09-19T08:58:42;99749.34;;;21.16;74.99
39177;BME280;24904;52.208;21.192;2023-09-19T09:03:50;99748.04;;;21.15;74.64
39177;BME280;24904;52.208;21.192;2023-09-19T09:08:56;99755.70;;;21.13;74.32
39177;BME280;24904;52.208;21.192;2023-09-19T09:14:01;99757.53;;;21.10;74.57
39177;BME280;24904;52.208;21.192;2023-09-19T09:19:07;99765.56;;;21.09;74.55
39177;BME280;24904;52.208;21.192;2023-09-19T09:24:31;99774.56;;;21.05;75.01
39177;BME280;24904;52.208;21.192;2023-09-19T09:29:47;99778.88;;;21.03;74.95
39177;BME280;24904;52.208;21.192;2023-09-19T09:34:54;99787.74;;;21.01;74.84
39177;BME280;24904;52.208;21.192;2023-09-19T09:40:01;99796.66;;;20.97;74.94
39177;BME280;24904;52.208;21.192;2023-09-19T09:45:24;99796.30;;;20.93;74.94
39177;BME280;24904;52.208;21.192;2023-09-19T09:50:47;99799.84;;;20.84;75.20
39177;BME280;24904;52.208;21.192;2023-09-19T09:56:01;99811.38;;;20.80;75.52
39177;BME280;24904;52.208;21.192;2023-09-19T10:01:09;99818.04;;;20.76;75.64
39177;BME280;24904;52.208;21.192;2023-09-19T10:06:19;99826.89;;;20.67;75.90
39177;BME280;24904;52.208;21.192;2023-09-19T10:11:35;99831.80;;;20.56;76.32
39177;BME280;24904;52.208;21.192;2023-09-19T10:16:47;99848.32;;;20.42;77.03
39177;BME280;24904;52.208;21.192;2023-09-19T10:21:55;99866.23;;;20.25;77.90
39177;BME280;24904;52.208;21.192;2023-09-19T10:27:02;99882.40;;;20.05;79.40
39177;BME280;24904;52.208;21.192;2023-09-19T10:32:08;99865.56;;;19.86;80.65
39177;BME280;24904;52.208;21.192;2023-09-19T10:37:14;99858.04;;;19.69;81.88
39177;BME280;24904;52.208;21.192;2023-09-19T10:42:21;99862.29;;;19.55;82.82
39177;BME280;24904;52.208;21.192;2023-09-19T10:47:28;99864.84;;;19.48;83.74
39177;BME280;24904;52.208;21.192;2023-09-19T10:52:37;99866.27;;;19.43;84.32
39177;BME280;24904;52.208;21.192;2023-09-19T10:57:45;99862.87;;;19.38;85.17
39177;BME280;24904;52.208;21.192;2023-09-19T11:03:23;99859.09;;;19.34;85.69
39177;BME280;24904;52.208;21.192;2023-09-19T11:08:52;99853.46;;;19.31;86.06
39177;BME280;24904;52.208;21.192;2023-09-19T11:14:28;99838.21;;;19.28;86.81
39177;BME280;24904;52.208;21.192;2023-09-19T11:25:42;99853.19;;;19.30;87.61
39177;BME280;24904;52.208;21.192;2023-09-19T11:30:52;99857.25;;;19.32;88.20
39177;BME280;24904;52.208;21.192;2023-09-19T11:36:06;99866.39;;;19.30;88.38
39177;BME280;24904;52.208;21.192;2023-09-19T11:41:39;99869.43;;;19.26;88.59
39177;BME280;24904;52.208;21.192;2023-09-19T11:46:55;99868.95;;;19.26;89.13
39177;BME280;24904;52.208;21.192;2023-09-19T11:55:32;99867.01;;;19.31;90.08
39177;BME280;24904;52.208;21.192;2023-09-19T12:00:38;99867.30;;;19.34;90.07
39177;BME280;24904;52.208;21.192;2023-09-19T12:05:43;99872.65;;;19.35;90.52
39177;BME280;24904;52.208;21.192;2023-09-19T12:10:48;99872.14;;;19.36;90.75
39177;BME280;24904;52.208;21.192;2023-09-19T12:15:52;99878.51;;;19.36;90.84
39177;BME280;24904;52.208;21.192;2023-09-19T12:20:55;99882.55;;;19.32;90.79
39177;BME280;24904;52.208;21.192;2023-09-19T12:26:02;99884.79;;;19.29;91.17
39177;BME280;24904;52.208;21.192;2023-09-19T12:31:14;99894.23;;;19.30;91.60
39177;BME280;24904;52.208;21.192;2023-09-19T12:36:24;99898.17;;;19.31;91.88
39177;BME280;24904;52.208;21.192;2023-09-19T12:41:32;99902.89;;;19.31;91.77
39177;BME280;24904;52.208;21.192;2023-09-19T12:46:35;99909.99;;;19.26;91.97
39177;BME280;24904;52.208;21.192;2023-09-19T12:51:38;99917.48;;;19.23;91.88
39177;BME280;24904;52.208;21.192;2023-09-19T12:56:42;99921.39;;;19.18;91.51
39177;BME280;24904;52.208;21.192;2023-09-19T13:01:46;99919.00;;;19.16;91.91
39177;BME280;24904;52.208;21.192;2023-09-19T13:07:05;99912.48;;;19.16;92.36
39177;BME280;24904;52.208;21.192;2023-09-19T13:12:36;99908.60;;;19.16;92.72
39177;BME280;24904;52.208;21.192;2023-09-19T13:17:44;99904.80;;;19.15;92.94
39177;BME280;24904;52.208;21.192;2023-09-19T13:22:47;99905.92;;;19.15;93.23
39177;BME280;24904;52.208;21.192;2023-09-19T13:27:54;99907.85;;;19.14;93.43
39177;BME280;24904;52.208;21.192;2023-09-19T13:33:06;99903.20;;;19.15;93.84
39177;BME280;24904;52.208;21.192;2023-09-19T13:38:09;99905.44;;;19.18;93.96
39177;BME280;24904;52.208;21.192;2023-09-19T13:43:13;99912.40;;;19.19;94.17
39177;BME280;24904;52.208;21.192;2023-09-19T13:48:16;99916.36;;;19.22;94.29
39177;BME280;24904;52.208;21.192;2023-09-19T13:53:22;99917.44;;;19.25;94.38
39177;BME280;24904;52.208;21.192;2023-09-19T13:58:28;99913.70;;;19.27;94.57
39177;BME280;24904;52.208;21.192;2023-09-19T14:03:32;99912.70;;;19.29;94.73
39177;BME280;24904;52.208;21.192;2023-09-19T14:08:35;99914.53;;;19.32;94.79
39177;BME280;24904;52.208;21.192;2023-09-19T14:13:39;99923.25;;;19.35;95.10
39177;BME280;24904;52.208;21.192;2023-09-19T14:18:42;99919.54;;;19.37;95.00
39177;BME280;24904;52.208;21.192;2023-09-19T14:23:45;99921.23;;;19.38;95.12
39177;BME280;24904;52.208;21.192;2023-09-19T14:28:48;99922.64;;;19.41;95.20
39177;BME280;24904;52.208;21.192;2023-09-19T14:33:55;99922.52;;;19.42;94.93
39177;BME280;24904;52.208;21.192;2023-09-19T14:38:58;99928.14;;;19.44;95.02
39177;BME280;24904;52.208;21.192;2023-09-19T14:44:03;99929.34;;;19.44;94.85
39177;BME280;24904;52.208;21.192;2023-09-19T14:49:07;99933.28;;;19.45;95.06
39177;BME280;24904;52.208;21.192;2023-09-19T14:54:12;99935.73;;;19.45;95.47
39177;BME280;24904;52.208;21.192;2023-09-19T14:59:15;99939.27;;;19.44;95.47
39177;BME280;24904;52.208;21.192;2023-09-19T15:04:18;99938.02;;;19.43;95.31
39177;BME280;24904;52.208;21.192;2023-09-19T15:09:21;99934.23;;;19.40;95.60
39177;BME280;24904;52.208;21.192;2023-09-19T15:14:26;99929.06;;;19.37;96.00
39177;BME280;24904;52.208;21.192;2023-09-19T15:19:29;99943.80;;;19.36;96.44
39177;BME280;24904;52.208;21.192;2023-09-19T15:24:32;99954.89;;;19.38;96.26
39177;BME280;24904;52.208;21.192;2023-09-19T15:29:36;99948.64;;;19.37;96.28
39177;BME280;24904;52.208;21.192;2023-09-19T15:34:41;99946.42;;;19.34;96.67
39177;BME280;24904;52.208;21.192;2023-09-19T15:39:44;99950.00;;;19.34;96.84
39177;BME280;24904;52.208;21.192;2023-09-19T15:44:48;99954.23;;;19.34;97.10
39177;BME280;24904;52.208;21.192;2023-09-19T15:49:53;99960.33;;;19.33;97.31
39177;BME280;24904;52.208;21.192;2023-09-19T15:54:56;99959.27;;;19.33;97.19
39177;BME280;24904;52.208;21.192;2023-09-19T15:59:59;99958.10;;;19.30;96.56
39177;BME280;24904;52.208;21.192;2023-09-19T16:05:14;99972.00;;;19.25;96.23
39177;BME280;24904;52.208;21.192;2023-09-19T16:10:17;99980.20;;;19.22;96.14
39177;BME280;24904;52.208;21.192;2023-09-19T16:15:20;99986.81;;;19.19;96.08
39177;BME280;24904;52.208;21.192;2023-09-19T16:20:23;99990.49;;;19.13;96.06
39177;BME280;24904;52.208;21.192;2023-09-19T16:25:26;99993.69;;;19.10;96.08
39177;BME280;24904;52.208;21.192;2023-09-19T16:30:31;99997.41;;;19.05;95.73
39177;BME280;24904;52.208;21.192;2023-09-19T16:35:38;100004.43;;;18.99;95.59
39177;BME280;24904;52.208;21.192;2023-09-19T16:40:52;100004.95;;;18.92;95.58
39177;BME280;24904;52.208;21.192;2023-09-19T16:45:55;100008.54;;;18.89;95.65
39177;BME280;24904;52.208;21.192;2023-09-19T16:51:01;100013.02;;;18.85;95.60
39177;BME280;24904;52.208;21.192;2023-09-19T16:56:07;100012.50;;;18.78;95.45
39177;BME280;24904;52.208;21.192;2023-09-19T17:01:12;100016.38;;;18.73;95.56
39177;BME280;24904;52.208;21.192;2023-09-19T17:06:15;100023.19;;;18.70;95.66
39177;BME280;24904;52.208;21.192;2023-09-19T17:11:20;100030.65;;;18.67;95.84
39177;BME280;24904;52.208;21.192;2023-09-19T17:16:23;100033.79;;;18.66;96.04
39177;BME280;24904;52.208;21.192;2023-09-19T17:21:27;100035.20;;;18.65;96.15
39177;BME280;24904;52.208;21.192;2023-09-19T17:26:30;100040.32;;;18.63;96.15
39177;BME280;24904;52.208;21.192;2023-09-19T17:31:35;100042.67;;;18.61;96.32
39177;BME280;24904;52.208;21.192;2023-09-19T17:36:41;100050.70;;;18.60;96.43
39177;BME280;24904;52.208;21.192;2023-09-19T17:41:46;100055.44;;;18.59;96.28
39177;BME280;24904;52.208;21.192;2023-09-19T17:46:49;100061.65;;;18.57;96.05
39177;BME280;24904;52.208;21.192;2023-09-19T17:51:53;100078.02;;;18.55;96.01
39177;BME280;24904;52.208;21.192;2023-09-19T17:56:56;100081.63;;;18.50;95.93
39177;BME280;24904;52.208;21.192;2023-09-19T18:01:59;100088.43;;;18.46;95.85
39177;BME280;24904;52.208;21.192;2023-09-19T18:07:02;100095.34;;;18.42;95.82
39177;BME280;24904;52.208;21.192;2023-09-19T18:12:06;100102.10;;;18.35;95.72
39177;BME280;24904;52.208;21.192;2023-09-19T18:17:10;100107.50;;;18.29;95.58
39177;BME280;24904;52.208;21.192;2023-09-19T18:22:13;100109.80;;;18.23;95.22
39177;BME280;24904;52.208;21.192;2023-09-19T18:27:16;100119.45;;;18.15;94.81
39177;BME280;24904;52.208;21.192;2023-09-19T18:32:19;100123.38;;;18.06;94.62
39177;BME280;24904;52.208;21.192;2023-09-19T18:37:22;100126.08;;;17.96;93.96
39177;BME280;24904;52.208;21.192;2023-09-19T18:42:26;100128.06;;;17.85;93.34
39177;BME280;24904;52.208;21.192;2023-09-19T18:47:29;100134.19;;;17.78;93.37
39177;BME280;24904;52.208;21.192;2023-09-19T18:52:32;100140.89;;;17.68;92.81
39177;BME280;24904;52.208;21.192;2023-09-19T18:57:35;100142.30;;;17.57;92.60
39177;BME280;24904;52.208;21.192;2023-09-19T19:02:38;100147.34;;;17.47;92.40
39177;BME280;24904;52.208;21.192;2023-09-19T19:07:41;100153.08;;;17.38;92.54
39177;BME280;24904;52.208;21.192;2023-09-19T19:12:45;100160.02;;;17.32;92.50
39177;BME280;24904;52.208;21.192;2023-09-19T19:17:48;100160.64;;;17.25;92.37
39177;BME280;24904;52.208;21.192;2023-09-19T19:22:51;100157.23;;;17.16;92.14
39177;BME280;24904;52.208;21.192;2023-09-19T19:27:54;100157.39;;;17.04;91.96
39177;BME280;24904;52.208;21.192;2023-09-19T19:32:57;100165.98;;;16.98;91.94
39177;BME280;24904;52.208;21.192;2023-09-19T19:38:00;100169.31;;;16.89;91.79
39177;BME280;24904;52.208;21.192;2023-09-19T19:43:04;100171.29;;;16.81;91.12
39177;BME280;24904;52.208;21.192;2023-09-19T19:48:07;100169.97;;;16.69;90.20
39177;BME280;24904;52.208;21.192;2023-09-19T19:53:11;100173.91;;;16.60;89.99
39177;BME280;24904;52.208;21.192;2023-09-19T19:58:14;100171.45;;;16.50;89.67
39177;BME280;24904;52.208;21.192;2023-09-19T20:03:17;100173.82;;;16.41;89.71
39177;BME280;24904;52.208;21.192;2023-09-19T20:08:20;100176.33;;;16.33;89.76
39177;BME280;24904;52.208;21.192;2023-09-19T20:13:24;100185.20;;;16.26;90.00
39177;BME280;24904;52.208;21.192;2023-09-19T20:18:28;100192.46;;;16.18;89.88
39177;BME280;24904;52.208;21.192;2023-09-19T20:23:31;100188.21;;;16.04;89.62
39177;BME280;24904;52.208;21.192;2023-09-19T20:28:35;100187.39;;;15.95;89.77
39177;BME280;24904;52.208;21.192;2023-09-19T20:33:40;100190.42;;;15.88;89.68
39177;BME280;24904;52.208;21.192;2023-09-19T20:38:43;100189.61;;;15.78;89.57
39177;BME280;24904;52.208;21.192;2023-09-19T20:43:47;100191.57;;;15.66;89.31
39177;BME280;24904;52.208;21.192;2023-09-19T20:48:50;100196.78;;;15.61;89.82
39177;BME280;24904;52.208;21.192;2023-09-19T20:53:53;100199.44;;;15.55;89.60
39177;BME280;24904;52.208;21.192;2023-09-19T20:58:58;100197.77;;;15.49;89.52
39177;BME280;24904;52.208;21.192;2023-09-19T21:04:02;100202.59;;;15.41;89.53
39177;BME280;24904;52.208;21.192;2023-09-19T21:09:06;100208.95;;;15.32;89.28
39177;BME280;24904;52.208;21.192;2023-09-19T21:14:10;100208.27;;;15.29;89.57
39177;BME280;24904;52.208;21.192;2023-09-19T21:19:13;100214.14;;;15.19;89.09
39177;BME280;24904;52.208;21.192;2023-09-19T21:30:29;100224.86;;;15.21;89.85
39177;BME280;24904;52.208;21.192;2023-09-19T21:35:32;100224.34;;;15.26;89.98
39177;BME280;24904;52.208;21.192;2023-09-19T21:40:35;100227.20;;;15.25;89.91
39177;BME280;24904;52.208;21.192;2023-09-19T21:45:38;100232.90;;;15.32;90.40
39177;BME280;24904;52.208;21.192;2023-09-19T21:50:42;100230.27;;;15.41;90.27
39177;BME280;24904;52.208;21.192;2023-09-19T21:56:00;100229.25;;;15.40;90.00
39177;BME280;24904;52.208;21.192;2023-09-19T22:01:04;100228.03;;;15.43;89.82
39177;BME280;24904;52.208;21.192;2023-09-19T22:06:10;100225.20;;;15.42;89.52
39177;BME280;24904;52.208;21.192;2023-09-19T22:11:16;100223.80;;;15.40;89.41
39177;BME280;24904;52.208;21.192;2023-09-19T22:16:19;100225.87;;;15.38;89.28
39177;BME280;24904;52.208;21.192;2023-09-19T22:21:23;100226.06;;;15.36;88.97
39177;BME280;24904;52.208;21.192;2023-09-19T22:26:34;100226.09;;;15.32;88.92
39177;BME280;24904;52.208;21.192;2023-09-19T22:31:40;100223.48;;;15.32;88.77
39177;BME280;24904;52.208;21.192;2023-09-19T22:44:55;100226.48;;;15.26;88.47
39177;BME280;24904;52.208;21.192;2023-09-19T23:02:39;100238.40;;;14.93;88.08
39177;BME280;24904;52.208;21.192;2023-09-19T23:07:45;100243.73;;;14.79;87.72
39177;BME280;24904;52.208;21.192;2023-09-19T23:12:57;100243.38;;;14.64;87.46
39177;BME280;24904;52.208;21.192;2023-09-19T23:18:03;100245.41;;;14.57;87.73
39177;BME280;24904;52.208;21.192;2023-09-19T23:23:14;100254.23;;;14.48;87.72
39177;BME280;24904;52.208;21.192;2023-09-19T23:28:21;100256.64;;;14.37;87.56
39177;BME280;24904;52.208;21.192;2023-09-19T23:33:27;100267.00;;;14.31;87.81
39177;BME280;24904;52.208;21.192;2023-09-19T23:38:34;100265.88;;;14.23;87.65
39177;BME280;24904;52.208;21.192;2023-09-19T23:43:41;100270.63;;;14.18;87.76
39177;BME280;24904;52.208;21.192;2023-09-19T23:48:46;100274.38;;;14.11;87.65
39177;BME280;24904;52.208;21.192;2023-09-19T23:53:51;100280.55;;;14.08;87.42
39177;BME280;24904;52.208;21.192;2023-09-19T23:58:56;100282.08;;;14.01;87.08
